Medicine Bow, Wyoming
Current Conditions -  °F | °C
As of 11:15 AM on Tuesday 21 Oct 2014 (Local Time) from KEHY Reporting Station
Broken Clouds Broken Clouds  
Wind Chill: 57°   Ceiling: 8500
Heat Index: 57°   Visibility: 10mi
Dew Point: 34°   Wind: 21mph
Humidity: 41%   Direction: 220°SW
Pressure: 30.04"   Gusts: 33mph
Location:  41.9°N, 106.2°W
Report Text: KEHY 211715Z AUTO 22018G29KT 10SM BKN085 14/01 A3004 RMK AO2
Loading
Personal Weather Stations






























Interactive Weather Map
Tropical Storm Tracking
New forecast layout! Learn more

10-Day Weather Forecast

Advertisements
Track Severe Weather on mobile